Gypsum, CO (81637)

5:14 AM MST on December 08, 2016 (GMT -0700)
Porphyry Road | | Change Station

Elev 6286 ft 39.65 °N, 106.96 °W | Updated 6 seconds ago

Clear
Clear
-0.9 °F
Feels Like -1 °F
N
0.0
Wind Variable Wind from NW
Gusts 0.0 mph

Today
High -- | Low -- °F
--% Chance of Precip.
Yesterday
High -- | Low -- °F
Precip. -- in
Pressure 30.71 in
Visibility 10.0 miles
Clouds Clear
Windchill -1 °F
Dew Point -6 °F
Humidity 79%
Rainfall 0.00 in
Snow Depth Not available.
7:16 AM 4:43 PM
Waxing Gibbous, 63% visible
METAR KEGE 081156Z AUTO 08004KT 10SM CLR M21/M23 A3036 RMK AO2 SLP397 T12061228 11178 21217 58001 FZRANO
Pressure 30.71 in
Visibility 10.0 miles
Clouds Clear
Windchill -1 °F
Dew Point -6 °F
Humidity 79%
Rainfall 0.00 in
Snow Depth Not available.
7:16 AM 4:43 PM
Waxing Gibbous, 63% visible
METAR KEGE 081156Z AUTO 08004KT 10SM CLR M21/M23 A3036 RMK AO2 SLP397 T12061228 11178 21217 58001 FZRANO

10-Day Weather Forecast

Almanac

Astronomy

Dec. 08, 2016 Rise Set
Actual Time
Civil Twilight
Nautical Twilight
Astronomical Twilight
Moon
Length of Visible Light
Length of Day
Tomorrow will be .
, % of the Moon is Illuminated

Today's Extremes

State Highs State Lows

Community

WunderPhotos

Upload Photos

1,956,267 photos uploaded!

WunderBlog® & News

Nearby

Air Quality

  Air Quality AQ Index Pollutant
Not available.

Snow Depth

Station Depth Elevation

Earthquake Activity

City Distance Mag. Time & Date
Minimum magnitude displayed is 2.5.

Coastal Water Temperatures

Place Temperature

Stations

Nearby Weather Stations

Station Location Temp. Windchill Dew Point Humidity Wind Precip. Elev Updated Type
                   

Watches & Warnings

There are currently no watches in effect.